OICK  Khoram Abad Airport

Add Bookmark

Iran

Status IATA
Operational KHD
Latitude Longitude
33° 26' 7" N 48° 16' 58" E
33.435398 48.282902
Local (DST + 5) UTC (GMT + 4)
Jul 24, 2014 07:14 Jul 24, 2014 14:44
Sunrise-Sunset Local UTC
Begin Civil Twilight 05:54 01:24
Sunrise 06:22 01:52
Sunset 08:24 15:54
End Civil Twilight 08:51 16:21

Current Weather

METAR Observed VFR
OICK 241350Z 21006KT CAVOK 41/00 Q1005 Thu, Jul 24, 2014 @ 13:50 UTC
(54 Minutes ago)
Visual Flight Rules

Decoded METAR

Wind Visibility Clouds Conditions
210° at 6 knots (11 kph) 10 km or more
  • Clear skies
  • No significant weather
Temperatures Readings Precipitation
Current Temp 41°C (106°F)
Dewpoint 0°C (32°F)
Humidity 8%
Altimeter 29.68"Hg
Sea Level Pressure 1005mb
Field Elevation 3789.37'
None Recorded

Additional weather within a 185.2km radius of OICK

Map ICAO Location
OIHM 106.3km N (027°)
OICC 144.8km N (315°)
OIHH 161.3km N (009°)
OICI 174.8km W (276°)
OIAI 184.1km S (150°)

24 Hour Weather History

Loading
-

24 Hour Weather Graphs

Loading
-

CheckWX.com is intended as a tool to help pilots better visualize weather data. It is not intended as a substitute for an official weather briefing obtained from a Flight Service Station. CheckWX.com does not meet the FAA requirements for an official pre-flight weather briefing. Therefore, it's important that pilots still call and obtain an official FSS pre-flight weather briefing.